May 23, 2022

Time Code Weather Temp. Visibility Clouds Wind METAR/SPECI
8:20 am
V
57 °F 6¼ mi+ 9,000 ft 070°   070° 4 kt METAR ETHL 230620Z 07004KT 9999 -RA SCT060 BKN090 BKN140 14/11 Q1009 BLU BLU TEMPO GRN
7:20 am
V
55 °F 6¼ mi+ 9,000 ft 260°   260° 2 kt METAR ETHL 230520Z 26002KT 9999 -RA SCT060 BKN090 BKN140 13/10 Q1009 BLU BLU TEMPO GRN
6:20 am
V
54 °F 6¼ mi+ 14,000 ft 060°   060° 2 kt METAR ETHL 230420Z 06002KT 9999 VCSH SCT090 BKN140 BKN240 12/09 Q1008 BLU BLU TEMPO GRN
5:20 am
M
54 °F 3¾ mi - 190°   190° 1 kt METAR ETHL 230320Z AUTO 19001KT 6000 // ////// 12/08 Q1008 ///
4:20 am
M
52 °F 3¾ mi - 040°   040° 3 kt METAR ETHL 230220Z AUTO 04003KT 6000 // ////// 11/09 Q1009 ///
3:20 am
M
55 °F 3¾ mi - Var   Var 3 kt METAR ETHL 230120Z AUTO VRB03KT 6000 // ////// 13/09 Q1010 ///
2:20 am
M
54 °F 3¾ mi - 040°   040° 3 kt METAR ETHL 230020Z AUTO 04003KT 6000 // ////// 12/09 Q1010 ///
1:20 am
M
57 °F 3¾ mi - Var   000° 0 kt METAR ETHL 222320Z AUTO 00000KT 6000 // ////// 14/09 Q1010 ///
12:20 am
M
59 °F 3¾ mi - 050°   050° 3 kt METAR ETHL 222220Z AUTO 05003KT 6000 // ////// 15/09 Q1010 ///

May 22, 2022

Time Code Weather Temp. Visibility Clouds Wind METAR/SPECI
11:20 pm
M
61 °F 3¾ mi - 060°   060° 2 kt METAR ETHL 222120Z AUTO 06002KT 6000 // ////// 16/09 Q1011 ///
10:20 pm
M
63 °F 3⅛ mi - 070°   070° 2 kt METAR ETHL 222020Z AUTO 07002KT 5000 // ////// 17/09 Q1012 ///
9:20 pm
M
64 °F 3⅛ mi - 060°   060° 3 kt METAR ETHL 221920Z AUTO 06003KT 5000 // ////// 18/09 Q1012 ///
8:20 pm
M
66 °F 3⅛ mi - 170°   170° 5 kt METAR ETHL 221820Z AUTO 17005KT 5000 // ////// 19/09 Q1012 ///
7:20 pm
M
68 °F 3¾ mi - 080°   080° 6 kt METAR ETHL 221720Z AUTO 08006KT 6000 // ////// 20/09 Q1012 ///
6:20 pm
V
70 °F 6¼ mi+ 10,000 ft 060°   060° 3 kt METAR ETHL 221620Z 06003KT 9999 BKN100 21/10 Q1013 BLU
5:20 pm
V
72 °F 6¼ mi+ 10,000 ft 040°   040° 2 kt METAR ETHL 221520Z 04002KT 9999 FEW050 BKN100 BKN220 22/07 Q1013 BLU
4:20 pm
V
73 °F 6¼ mi+ 24,000 ft 040°   040° 3 kt METAR ETHL 221420Z 04003KT 9999 FEW050 BKN240 23/07 Q1013 BLU+
3:20 pm
V
73 °F 6¼ mi+ 23,000 ft 360°   360° 2 kt METAR ETHL 221320Z 36002KT 9999 FEW050 BKN230 23/07 Q1014 BLU+
2:20 pm
V
72 °F 6¼ mi+ 23,000 ft 060°   060° 5 kt METAR ETHL 221220Z 06005KT 9999 FEW050 BKN230 22/07 Q1014 BLU+
1:20 pm
V
70 °F 6¼ mi+ 24,000 ft 030°   030° 2 kt METAR ETHL 221120Z 03002KT 9999 FEW130 BKN240 21/06 Q1015 BLU+
12:20 pm
V
70 °F 6¼ mi+ 23,000 ft Var   Var 2 kt METAR ETHL 221020Z VRB02KT 9999 FEW130 BKN230 21/08 Q1016 BLU+
11:20 am
V
66 °F 6¼ mi+ 23,000 ft 040°   040° 2 kt METAR ETHL 220920Z 04002KT 9999 FEW040 BKN230 19/08 Q1016 BLU+
10:20 am
V
64 °F 6¼ mi+ 28,000 ft 050°   050° 2 kt METAR ETHL 220820Z 05002KT 9999 FEW030 BKN280 18/10 Q1017 BLU+
9:20 am
V
61 °F 6¼ mi+ - 050°   050° 1 kt METAR ETHL 220720Z 05001KT 9999 FEW025 SCT260 16/10 Q1017 BLU+
8:20 am
V
57 °F 6¼ mi+ - 040°   040° 1 kt METAR ETHL 220620Z 04001KT 9999 FEW045 14/09 Q1017 BLU+
7:20 am
V
52 °F 6¼ mi+ - 270°   270° 2 kt METAR ETHL 220520Z 27002KT 9999 FEW045 11/09 Q1018 BLU+
6:20 am
V
48 °F 6¼ mi+ - 190°   190° 2 kt METAR ETHL 220420Z 19002KT 9999 MIFG FEW045 SCT230 09/08 Q1018 BLU+
5:20 am
M
50 °F 3¾ mi - 060°   060° 1 kt METAR ETHL 220320Z AUTO 06001KT 6000 // ////// 10/08 Q1018 ///
4:20 am
M
50 °F 3¾ mi - 350°   350° 1 kt METAR ETHL 220220Z AUTO 35001KT 6000 // ////// 10/08 Q1019 ///
3:20 am
M
50 °F 3¾ mi - 010°   010° 2 kt METAR ETHL 220120Z AUTO 01002KT 6000 // ////// 10/08 Q1019 ///
2:20 am
M
52 °F 3⅛ mi - Var   000° 0 kt METAR ETHL 220020Z AUTO 00000KT 5000 // ////// 11/07 Q1019 ///
1:20 am
M
54 °F 3¾ mi - 080°   080° 1 kt METAR ETHL 212320Z AUTO 08001KT 6000 // ////// 12/07 Q1020 ///
12:20 am
M
55 °F 3¾ mi - 090°   090° 2 kt METAR ETHL 212220Z AUTO 09002KT 6000 // ////// 13/08 Q1020 ///

May 21, 2022

Time Code Weather Temp. Visibility Clouds Wind METAR/SPECI
11:20 pm
M
55 °F 3¾ mi - 030°   030° 2 kt METAR ETHL 212120Z AUTO 03002KT 6000 // ////// 13/08 Q1020 ///
10:20 pm
M
59 °F 3⅛ mi - 070°   070° 2 kt METAR ETHL 212020Z AUTO 07002KT 5000 // ////// 15/08 Q1020 ///
9:20 pm
M
61 °F 3⅛ mi - 060°   060° 2 kt METAR ETHL 211920Z AUTO 06002KT 5000 // ////// 16/09 Q1020 ///
8:20 pm
M
64 °F 3¾ mi - 030°   030° 4 kt METAR ETHL 211820Z AUTO 03004KT 6000 // ////// 18/09 Q1020 ///
7:20 pm
M
68 °F 3¾ mi - 030°   030° 6 kt METAR ETHL 211720Z AUTO 03006KT 6000 // ////// 20/09 Q1020 ///
6:20 pm
V
70 °F 6¼ mi+ 21,000 ft 330°   330° 4 kt METAR ETHL 211620Z 33004KT 9999 FEW050 BKN210 21/06 Q1020 BLU+
5:20 pm
V
72 °F 6¼ mi+ 24,000 ft 300°   300° 6 kt METAR ETHL 211520Z 30006KT 9999 FEW060 BKN240 BKN310 22/05 Q1020 BLU+
4:20 pm
V
73 °F 6¼ mi+ 35,000 ft 280°   280° 8 kt METAR ETHL 211420Z 28008KT 9999 FEW060 SCT290 BKN350 23/06 Q1021 BLU+
3:20 pm
V
72 °F 6¼ mi+ 33,000 ft 290°   290° 4 kt METAR ETHL 211320Z 29004KT 9999 FEW060 BKN330 22/07 Q1021 BLU+
2:20 pm
V
70 °F 6¼ mi+ 33,000 ft 250°   250° 5 kt METAR ETHL 211220Z 25005KT 9999 FEW050 BKN330 21/08 Q1022 BLU+
1:20 pm
V
68 °F 6¼ mi+ 33,000 ft 230°   230° 6 kt METAR ETHL 211120Z 23006KT 9999 FEW045 BKN330 20/08 Q1022 BLU+
12:20 pm
V
66 °F 6¼ mi+ 35,000 ft 250°   250° 6 kt METAR ETHL 211020Z 25006KT 9999 FEW040 BKN350 19/08 Q1023 BLU+
11:20 am
V
64 °F 6¼ mi+ - 260°   260° 6 kt METAR ETHL 210920Z 26006KT 9999 FEW020 SCT360 18/08 Q1023 BLU+
10:20 am
V
61 °F 6¼ mi+ - 250°   250° 6 kt METAR ETHL 210820Z 25006KT 9999 FEW020 SCT360 16/07 Q1024 BLU+
9:20 am
V
61 °F 6¼ mi+ - 290°   290° 4 kt METAR ETHL 210720Z 29004KT 9999 FEW020 SCT360 16/09 Q1024 BLU+
Older data

Download our app

Easy access to all aviation weather on your mobile phone and tablet.
With many features not available on the website, like offline support and a personal airport list.

We and third parties follow your internet behavior on our website with cookies. If you continue, we assume you agree with our cookie policy. Learn more